Peach Orchard, Missouri
Current Conditions -  °F | °C
As of 8:53 AM on Friday 31 Oct 2014 (Local Time) from KPOF Reporting Station
Broken Clouds Broken Clouds  
Wind Chill: 50°   Ceiling: 8500
Heat Index: 50°   Visibility: 10mi
Dew Point: 41°   Wind: 15mph
Humidity: 71%   Direction: 350°N
Pressure: 30.15"   Gusts: 23mph
Location:  36.4472°N, 89.9037°W
Report Text: KPOF 311353Z AUTO 35013G20KT 10SM BKN085 10/05 A3015 RMK AO2 SLP212 T01000050
Loading
Personal Weather Stations






























Interactive Weather Map New forecast layout! Learn more

10-Day Weather Forecast

Advertisements
Track Severe Weather on mobile